Time;durP1;ratioP1;P1;durP2;ratioP2;P2;SDS_P1;SDS_P2;PMS_P1;PMS_P2;Temp;Humidity;BMP_temperature;BMP_pressure;BME280_temperature;BME280_humidity;BME280_pressure;Samples;Min_cycle;Max_cycle;Signal;HPM_P1;HPM_P2
2023/10/02 00:05:05;;;;;;;;;11.00;10.25;;;;;;;;5092007;28;10665;-71
2023/10/02 00:07:33;;;;;;;;;12.50;9.00;;;;;;;;5091558;28;10808;-71
2023/10/02 00:09:59;;;;;;;;;15.00;12.00;;;;;;;;5091811;28;10572;-70
2023/10/02 00:12:26;;;;;;;;;11.25;11.25;;;;;;;;5091782;28;11340;-70
2023/10/02 00:14:51;;;;;;;;;14.50;13.25;;;;;;;;5091616;28;8795;-70
2023/10/02 00:17:18;;;;;;;;;16.00;10.75;;;;;;;;5091673;28;10669;-70
2023/10/02 00:19:45;;;;;;;;;13.50;10.75;;;;;;;;5091937;28;8968;-70
2023/10/02 00:25:00;;;;;;;;;11.00;11.00;;;;;;;;5091632;28;10660;-71
2023/10/02 00:27:28;;;;;;;;;10.00;9.25;;;;;;;;5091575;28;10565;-71
2023/10/02 00:29:58;;;;;;;;;13.25;12.75;;;;;;;;5091076;28;10817;-71
2023/10/02 00:32:29;;;;;;;;;14.00;11.75;;;;;;;;5091568;28;10763;-71
2023/10/02 00:34:54;;;;;;;;;14.25;13.00;;;;;;;;5091051;28;10704;-71
2023/10/02 00:37:20;;;;;;;;;10.50;9.75;;;;;;;;5091438;28;10824;-71
2023/10/02 00:39:52;;;;;;;;;14.00;12.50;;;;;;;;5090866;28;8788;-71
2023/10/02 00:44:55;;;;;;;;;13.25;12.25;;;;;;;;5091047;28;10667;-71
2023/10/02 00:47:45;;;;;;;;;12.00;12.00;;;;;;;;5091392;28;10814;-71
2023/10/02 00:50:17;;;;;;;;;12.00;10.00;;;;;;;;5091057;28;10752;-71
2023/10/02 00:52:46;;;;;;;;;13.50;10.50;;;;;;;;5091719;28;10849;-71
2023/10/02 00:55:12;;;;;;;;;13.75;11.75;;;;;;;;5091046;28;10901;-71
2023/10/02 00:57:41;;;;;;;;;11.00;9.50;;;;;;;;5090729;28;11520;-66
2023/10/02 01:00:16;;;;;;;;;10.00;9.00;;;;;;;;5090963;28;10790;-69
2023/10/02 01:02:42;;;;;;;;;9.50;9.00;;;;;;;;5091169;28;10695;-69
2023/10/02 01:05:14;;;;;;;;;10.00;10.00;;;;;;;;5091097;28;10736;-70
2023/10/02 01:07:40;;;;;;;;;10.00;9.50;;;;;;;;5090949;28;11491;-69
2023/10/02 01:10:10;;;;;;;;;15.50;12.25;;;;;;;;5090739;28;10766;-70
2023/10/02 01:12:43;;;;;;;;;10.25;9.00;;;;;;;;5091181;28;8788;-69
2023/10/02 01:15:11;;;;;;;;;16.50;10.00;;;;;;;;5090641;28;10633;-69
2023/10/02 01:17:37;;;;;;;;;4.75;2.75;;;;;;;;5090333;28;11756;-69
2023/10/02 01:20:20;;;;;;;;;12.25;11.50;;;;;;;;5089392;28;10944;-69
2023/10/02 01:22:51;;;;;;;;;8.75;7.75;;;;;;;;5090892;28;10783;-69
2023/10/02 01:25:18;;;;;;;;;8.25;8.25;;;;;;;;5090809;28;10688;-69
2023/10/02 01:27:47;;;;;;;;;10.25;10.00;;;;;;;;5090666;28;10694;-69
2023/10/02 01:30:21;;;;;;;;;8.00;8.00;;;;;;;;5090702;28;10811;-69
2023/10/02 01:33:12;;;;;;;;;10.00;8.50;;;;;;;;5090751;28;10739;-69
2023/10/02 01:35:46;;;;;;;;;12.50;9.00;;;;;;;;5090014;28;10869;-69
2023/10/02 01:38:14;;;;;;;;;11.75;8.00;;;;;;;;5090593;28;10846;-69
2023/10/02 01:40:54;;;;;;;;;8.25;8.25;;;;;;;;5090804;28;10800;-69
2023/10/02 01:43:24;;;;;;;;;8.00;8.00;;;;;;;;5090519;28;10783;-69
2023/10/02 01:45:54;;;;;;;;;10.25;9.00;;;;;;;;5090492;28;11065;-69
2023/10/02 01:48:37;;;;;;;;;8.00;7.50;;;;;;;;5090518;28;10984;-69
2023/10/02 01:51:20;;;;;;;;;11.50;8.75;;;;;;;;5089930;28;10964;-69
2023/10/02 01:53:46;;;;;;;;;11.25;9.50;;;;;;;;5090945;28;10990;-69
2023/10/02 01:56:12;;;;;;;;;10.25;8.00;;;;;;;;5090380;28;11527;-69
2023/10/02 01:58:39;;;;;;;;;11.00;7.50;;;;;;;;5090152;28;11463;-69
2023/10/02 02:01:06;;;;;;;;;9.00;8.00;;;;;;;;5090342;28;11480;-69
2023/10/02 02:03:31;;;;;;;;;7.00;6.00;;;;;;;;5090306;28;10763;-69
2023/10/02 02:05:57;;;;;;;;;8.00;7.50;;;;;;;;5090377;28;11566;-69
2023/10/02 02:08:22;;;;;;;;;7.00;6.00;;;;;;;;5089995;28;8792;-69
2023/10/02 02:10:49;;;;;;;;;8.50;6.75;;;;;;;;5090232;28;8816;-68
2023/10/02 02:13:14;;;;;;;;;8.00;8.00;;;;;;;;5090459;28;8800;-69
2023/10/02 02:15:46;;;;;;;;;9.75;8.00;;;;;;;;5089956;28;10662;-68
2023/10/02 02:18:11;;;;;;;;;9.00;9.00;;;;;;;;5090120;28;8803;-68
2023/10/02 02:20:57;;;;;;;;;7.00;6.75;;;;;;;;5090255;28;10624;-68
2023/10/02 02:23:28;;;;;;;;;9.00;8.00;;;;;;;;5093352;28;8802;-69
2023/10/02 02:25:54;;;;;;;;;9.50;8.50;;;;;;;;5094024;28;10737;-69
2023/10/02 02:28:21;;;;;;;;;10.00;10.00;;;;;;;;5093475;28;10703;-69
2023/10/02 02:30:47;;;;;;;;;8.25;8.25;;;;;;;;5093770;28;8902;-69
2023/10/02 02:33:13;;;;;;;;;9.50;9.50;;;;;;;;5093986;28;10675;-69
2023/10/02 02:35:41;;;;;;;;;9.00;8.00;;;;;;;;5093656;28;11558;-69
2023/10/02 02:38:14;;;;;;;;;8.00;7.25;;;;;;;;5093952;28;8788;-68
2023/10/02 02:40:42;;;;;;;;;8.25;7.25;;;;;;;;5093793;28;10715;-68
2023/10/02 02:43:19;;;;;;;;;8.75;8.75;;;;;;;;5093665;28;10826;-68
2023/10/02 02:45:45;;;;;;;;;9.00;9.00;;;;;;;;5093104;28;10911;-68
2023/10/02 02:48:10;;;;;;;;;7.00;7.00;;;;;;;;5093533;28;10950;-68
2023/10/02 02:50:42;;;;;;;;;9.50;8.50;;;;;;;;5093524;28;8792;-68
2023/10/02 02:53:21;;;;;;;;;8.50;8.25;;;;;;;;5094035;28;8807;-68
2023/10/02 02:55:59;;;;;;;;;7.75;7.75;;;;;;;;5093316;28;10846;-68
2023/10/02 02:58:25;;;;;;;;;10.00;8.25;;;;;;;;5093246;28;10730;-69
2023/10/02 03:00:52;;;;;;;;;10.50;8.75;;;;;;;;5091861;28;10859;-69
2023/10/02 03:03:32;;;;;;;;;7.50;7.50;;;;;;;;5091575;28;11141;-69
2023/10/02 03:05:58;;;;;;;;;9.50;9.00;;;;;;;;5093421;28;10896;-69
2023/10/02 03:08:36;;;;;;;;;11.75;8.00;;;;;;;;5093111;28;10963;-69
2023/10/02 03:11:06;;;;;;;;;8.50;8.50;;;;;;;;5093299;28;8771;-69
2023/10/02 03:13:31;;;;;;;;;8.00;6.00;;;;;;;;5093006;28;10885;-69
2023/10/02 03:16:08;;;;;;;;;12.50;9.00;;;;;;;;5093005;28;10911;-69
2023/10/02 03:18:36;;;;;;;;;12.00;9.00;;;;;;;;5091640;28;8811;-69
2023/10/02 03:21:47;;;;;;;;;10.50;8.00;;;;;;;;5092513;28;11384;-69
2023/10/02 03:23:53;;;;;;;;;8.75;8.00;;;;;;;;5087222;28;11124;-69
2023/10/02 03:29:01;;;;;;;;;11.75;10.50;;;;;;;;5092639;28;11458;-69
2023/10/02 03:31:37;;;;;;;;;10.50;8.50;;;;;;;;5092808;28;11167;-69
2023/10/02 03:36:54;;;;;;;;;12.75;11.50;;;;;;;;5092471;28;11397;-69
2023/10/02 03:39:23;;;;;;;;;11.25;9.00;;;;;;;;5092139;28;11436;-69
2023/10/02 03:41:55;;;;;;;;;9.75;9.00;;;;;;;;5092631;28;11575;-69
2023/10/02 03:44:22;;;;;;;;;9.25;8.75;;;;;;;;5091122;28;11558;-68
2023/10/02 03:46:48;;;;;;;;;10.00;9.00;;;;;;;;5092417;28;11412;-68
2023/10/02 03:49:18;;;;;;;;;7.50;7.50;;;;;;;;5092328;28;11456;-68
2023/10/02 03:51:50;;;;;;;;;10.75;8.00;;;;;;;;5092617;28;11377;-67
2023/10/02 03:54:18;;;;;;;;;11.00;11.00;;;;;;;;5092278;28;11390;-67
2023/10/02 03:56:48;;;;;;;;;16.75;12.50;;;;;;;;5092193;28;11577;-68
2023/10/02 03:59:26;;;;;;;;;13.25;11.25;;;;;;;;5091608;28;11527;-68
2023/10/02 04:01:52;;;;;;;;;14.00;13.00;;;;;;;;5092123;28;11419;-68
2023/10/02 04:06:43;;;;;;;;;15.50;13.00;;;;;;;;5092276;28;8808;-68
2023/10/02 04:09:18;;;;;;;;;12.00;12.00;;;;;;;;5091920;28;8796;-68
2023/10/02 04:11:45;;;;;;;;;17.75;17.50;;;;;;;;5091980;28;8816;-68
2023/10/02 04:14:31;;;;;;;;;11.25;11.00;;;;;;;;5091782;28;12345;-68
2023/10/02 04:17:08;;;;;;;;;12.25;12.25;;;;;;;;5091386;28;11570;-68
2023/10/02 04:19:35;;;;;;;;;12.00;12.00;;;;;;;;5091706;28;11439;-69
2023/10/02 04:22:06;;;;;;;;;13.50;12.00;;;;;;;;5090326;28;11434;-68
2023/10/02 04:24:51;;;;;;;;;15.75;14.75;;;;;;;;5091650;28;11395;-68
2023/10/02 04:27:18;;;;;;;;;14.75;13.25;;;;;;;;5091576;28;11405;-68
2023/10/02 04:30:09;;;;;;;;;15.50;15.25;;;;;;;;5091389;28;11447;-68
2023/10/02 04:32:32;;;;;;;;;11.00;10.75;;;;;;;;5091352;28;11460;-68
2023/10/02 04:34:57;;;;;;;;;11.00;10.00;;;;;;;;5091272;28;11540;-68
2023/10/02 04:37:23;;;;;;;;;12.25;12.25;;;;;;;;5091190;28;11422;-68
2023/10/02 04:39:54;;;;;;;;;11.50;11.25;;;;;;;;5091251;28;8894;-68
2023/10/02 04:42:21;;;;;;;;;13.50;12.25;;;;;;;;5091465;28;8791;-68
2023/10/02 04:44:48;;;;;;;;;15.00;12.50;;;;;;;;5090630;28;11430;-68
2023/10/02 04:47:19;;;;;;;;;16.00;15.00;;;;;;;;5091228;28;11483;-68
2023/10/02 04:55:24;;;;;;;;;18.50;17.00;;;;;;;;5090910;28;11565;-67
2023/10/02 04:57:50;;;;;;;;;12.75;12.50;;;;;;;;5091280;28;11431;-74
2023/10/02 05:00:34;;;;;;;;;16.75;14.75;;;;;;;;5091097;28;11420;-73
2023/10/02 05:03:17;;;;;;;;;18.75;18.75;;;;;;;;5091325;28;11484;-70
2023/10/02 05:05:47;;;;;;;;;16.00;15.25;;;;;;;;5091364;28;12151;-70
2023/10/02 05:08:20;;;;;;;;;18.75;18.75;;;;;;;;5091416;28;11609;-73
2023/10/02 05:11:05;;;;;;;;;13.75;12.25;;;;;;;;5091025;28;11597;-71
2023/10/02 05:16:15;;;;;;;;;16.25;15.25;;;;;;;;5090621;28;11458;-72
2023/10/02 05:18:47;;;;;;;;;19.50;18.00;;;;;;;;5090904;28;11420;-72
2023/10/02 05:21:16;;;;;;;;;21.00;18.00;;;;;;;;5091041;28;8881;-80
2023/10/02 05:23:43;;;;;;;;;19.00;17.75;;;;;;;;5091165;28;11468;-77
2023/10/02 05:26:29;;;;;;;;;15.75;15.25;;;;;;;;5091003;28;11436;-72
2023/10/02 05:28:55;;;;;;;;;15.75;15.75;;;;;;;;5090153;28;11481;-75
2023/10/02 05:31:21;;;;;;;;;15.75;15.00;;;;;;;;5089997;28;11409;-70
2023/10/02 05:33:48;;;;;;;;;19.25;17.00;;;;;;;;5090174;28;11429;-69
2023/10/02 05:36:19;;;;;;;;;23.25;19.75;;;;;;;;5090085;28;8844;-70
2023/10/02 05:39:05;;;;;;;;;21.50;17.75;;;;;;;;5090381;28;11414;-67
2023/10/02 05:41:41;;;;;;;;;13.50;13.50;;;;;;;;5090128;28;11451;-68
2023/10/02 05:44:13;;;;;;;;;30.00;26.50;;;;;;;;5087617;28;11493;-68
2023/10/02 05:46:55;;;;;;;;;24.00;20.75;;;;;;;;5089236;28;11433;-73
2023/10/02 05:49:23;;;;;;;;;19.50;16.75;;;;;;;;5068802;28;11481;-66
2023/10/02 05:51:48;;;;;;;;;21.00;18.25;;;;;;;;5069834;28;11521;-66
2023/10/02 05:54:14;;;;;;;;;22.00;20.50;;;;;;;;5070237;28;12182;-69
2023/10/02 05:56:40;;;;;;;;;13.00;13.00;;;;;;;;5070036;28;8832;-67
2023/10/02 05:59:06;;;;;;;;;22.75;20.75;;;;;;;;5073848;28;8818;-67
2023/10/02 06:01:34;;;;;;;;;14.25;14.25;;;;;;;;5077903;28;11434;-68
2023/10/02 06:04:04;;;;;;;;;17.00;17.00;;;;;;;;5093605;28;8804;-67
2023/10/02 06:06:35;;;;;;;;;18.25;13.25;;;;;;;;5093336;28;11439;-67
2023/10/02 06:09:03;;;;;;;;;15.25;14.25;;;;;;;;5093133;28;11633;-67
2023/10/02 06:11:33;;;;;;;;;12.00;11.00;;;;;;;;5093619;28;11432;-67
2023/10/02 06:14:09;;;;;;;;;14.75;14.75;;;;;;;;5090959;28;11435;-68
2023/10/02 06:16:35;;;;;;;;;16.75;14.50;;;;;;;;5092184;28;11512;-67
2023/10/02 06:19:03;;;;;;;;;13.75;12.50;;;;;;;;5093066;28;11433;-67
2023/10/02 06:21:28;;;;;;;;;16.50;14.75;;;;;;;;5093680;28;8869;-65
2023/10/02 06:23:53;;;;;;;;;15.25;12.00;;;;;;;;5093024;28;11451;-68
2023/10/02 06:26:18;;;;;;;;;17.25;16.75;;;;;;;;5093110;28;9544;-67
2023/10/02 06:28:48;;;;;;;;;13.25;13.25;;;;;;;;5093300;28;8784;-67
2023/10/02 06:31:30;;;;;;;;;18.00;15.00;;;;;;;;5093178;28;8881;-67
2023/10/02 06:33:57;;;;;;;;;16.00;16.00;;;;;;;;5092157;28;11562;-68
2023/10/02 06:36:22;;;;;;;;;11.00;11.00;;;;;;;;5091992;28;11484;-69
2023/10/02 06:38:48;;;;;;;;;15.75;15.75;;;;;;;;5093707;28;11529;-66
2023/10/02 06:41:15;;;;;;;;;16.50;15.75;;;;;;;;5093765;28;8836;-68
2023/10/02 06:43:41;;;;;;;;;15.75;15.50;;;;;;;;5093311;28;11518;-68
2023/10/02 06:46:07;;;;;;;;;15.75;15.00;;;;;;;;5093580;28;11451;-67
2023/10/02 06:48:34;;;;;;;;;24.00;21.00;;;;;;;;5093654;28;8780;-69
2023/10/02 06:51:00;;;;;;;;;11.75;11.75;;;;;;;;5093979;28;11428;-67
2023/10/02 06:53:26;;;;;;;;;19.50;17.25;;;;;;;;5093611;28;11427;-70
2023/10/02 06:55:58;;;;;;;;;27.00;23.75;;;;;;;;5093337;28;11466;-71
2023/10/02 06:58:25;;;;;;;;;21.75;18.25;;;;;;;;5093535;28;8800;-71
2023/10/02 07:01:01;;;;;;;;;22.25;20.25;;;;;;;;5092711;28;11696;-76
2023/10/02 07:03:26;;;;;;;;;18.00;18.00;;;;;;;;5092585;28;11478;-84
2023/10/02 07:05:52;;;;;;;;;18.75;16.00;;;;;;;;5091455;28;11445;-84
2023/10/02 07:08:26;;;;;;;;;20.00;19.00;;;;;;;;5092478;28;8800;-81
2023/10/02 07:10:52;;;;;;;;;18.75;17.00;;;;;;;;5090245;28;8818;-84
2023/10/02 07:13:20;;;;;;;;;37.75;29.25;;;;;;;;5092812;28;12038;-82
2023/10/02 07:15:55;;;;;;;;;20.25;18.75;;;;;;;;5092102;28;8836;-82
2023/10/02 07:18:21;;;;;;;;;26.25;18.50;;;;;;;;5090385;28;11470;-80
2023/10/02 07:20:52;;;;;;;;;18.50;17.00;;;;;;;;5092258;28;11457;-77
2023/10/02 07:23:20;;;;;;;;;23.00;21.25;;;;;;;;5091547;28;8930;-82
2023/10/02 07:25:55;;;;;;;;;22.00;18.75;;;;;;;;5092957;28;11450;-81
2023/10/02 07:28:21;;;;;;;;;19.00;18.75;;;;;;;;5092843;28;11428;-75
2023/10/02 07:30:53;;;;;;;;;18.75;18.50;;;;;;;;5093031;28;11425;-75
2023/10/02 07:33:18;;;;;;;;;44.25;37.75;;;;;;;;5092751;28;11414;-68
2023/10/02 07:35:52;;;;;;;;;22.75;21.75;;;;;;;;5092453;28;11548;-76
2023/10/02 07:38:19;;;;;;;;;17.75;17.75;;;;;;;;5092660;28;8890;-79
2023/10/02 07:40:48;;;;;;;;;45.75;36.75;;;;;;;;5092481;28;11440;-78
2023/10/02 07:43:18;;;;;;;;;25.25;22.50;;;;;;;;5092465;28;11508;-74
2023/10/02 07:45:44;;;;;;;;;20.75;20.00;;;;;;;;5092726;28;12328;-75
2023/10/02 07:48:10;;;;;;;;;19.00;17.75;;;;;;;;5090965;28;11546;-81
2023/10/02 07:50:39;;;;;;;;;21.25;20.50;;;;;;;;5091497;28;8927;-81
2023/10/02 07:53:05;;;;;;;;;34.50;30.75;;;;;;;;5092882;28;11579;-81
2023/10/02 07:55:35;;;;;;;;;24.50;21.50;;;;;;;;5090790;28;11483;-81
2023/10/02 07:58:04;;;;;;;;;16.00;15.00;;;;;;;;5091210;28;11472;-82
2023/10/02 08:00:38;;;;;;;;;20.25;17.25;;;;;;;;5092257;28;10974;-81
2023/10/02 08:05:54;;;;;;;;;18.50;16.75;;;;;;;;5092161;28;10578;-80
2023/10/02 08:08:20;;;;;;;;;16.00;16.00;;;;;;;;5091988;28;10138;-80
2023/10/02 08:10:49;;;;;;;;;19.25;18.00;;;;;;;;5092093;28;9788;-81
2023/10/02 08:13:17;;;;;;;;;14.67;14.67;;;;;;;;5091680;28;9549;-81
2023/10/02 08:15:46;;;;;;;;;12.00;12.00;;;;;;;;5091918;28;9194;-81
2023/10/02 08:18:18;;;;;;;;;30.67;26.33;;;;;;;;5090585;28;8957;-81
2023/10/02 08:20:45;;;;;;;;;16.50;16.50;;;;;;;;5091234;28;9363;-82
2023/10/02 08:23:21;;;;;;;;;29.00;26.67;;;;;;;;5092048;28;8788;-82
2023/10/02 08:26:06;;;;;;;;;22.75;22.25;;;;;;;;5091996;28;9004;-82
2023/10/02 08:28:35;;;;;;;;;16.50;15.25;;;;;;;;5092020;28;8796;-82
2023/10/02 08:31:01;;;;;;;;;17.50;17.00;;;;;;;;5089956;28;8890;-82
2023/10/02 08:33:27;;;;;;;;;15.00;14.00;;;;;;;;5091780;28;8776;-81
2023/10/02 08:35:52;;;;;;;;;17.00;17.00;;;;;;;;5091707;28;8827;-82
2023/10/02 08:38:25;;;;;;;;;15.67;14.00;;;;;;;;5091612;28;8800;-81
2023/10/02 08:41:00;;;;;;;;;10.00;8.75;;;;;;;;5091744;28;9558;-79
2023/10/02 08:43:26;;;;;;;;;15.50;15.50;;;;;;;;5090286;28;9525;-80
2023/10/02 08:45:52;;;;;;;;;17.33;15.00;;;;;;;;5091355;28;8818;-80
2023/10/02 08:48:20;;;;;;;;;15.00;15.00;;;;;;;;5091680;28;11479;-81
2023/10/02 08:50:49;;;;;;;;;17.00;14.00;;;;;;;;5091439;28;8807;-81
2023/10/02 08:53:20;;;;;;;;;13.50;13.25;;;;;;;;5117629;22;8854;-76
2023/10/02 08:58:22;;;;;;;;;27.25;24.75;;;;;;;;5050748;28;8933;-74
2023/10/02 09:03:27;;;;;;;;;13.25;12.75;;;;;;;;5070905;28;8776;-76
2023/10/02 09:06:22;;;;;;;;;16.00;14.00;;;;;;;;5070756;28;8908;-77
2023/10/02 09:09:13;;;;;;;;;25.25;25.25;;;;;;;;5070217;28;8930;-76
2023/10/02 09:11:29;;;;;;;;;17.25;14.25;;;;;;;;5070546;28;8788;-75
2023/10/02 09:16:48;;;;;;;;;13.00;11.00;;;;;;;;5050326;28;8815;-88
2023/10/02 09:19:28;;;;;;;;;15.50;13.00;;;;;;;;5047317;28;8828;-77
2023/10/02 09:22:06;;;;;;;;;14.00;12.25;;;;;;;;5033000;28;8811;-76
2023/10/02 09:24:31;;;;;;;;;15.75;14.75;;;;;;;;5038224;28;8926;-76
2023/10/02 09:27:20;;;;;;;;;13.00;13.00;;;;;;;;5037798;28;9703;-77
2023/10/02 09:29:45;;;;;;;;;14.00;14.00;;;;;;;;5038212;28;8856;-77
2023/10/02 09:32:21;;;;;;;;;11.80;11.80;;;;;;;;5041026;28;8786;-76
2023/10/02 09:35:08;;;;;;;;;15.00;14.00;;;;;;;;5040153;28;8808;-76
2023/10/02 09:37:35;;;;;;;;;12.80;12.00;;;;;;;;5029835;28;8817;-77
2023/10/02 09:40:13;;;;;;;;;13.80;13.00;;;;;;;;5028642;28;8851;-78
2023/10/02 09:42:45;;;;;;;;;14.60;14.20;;;;;;;;5030165;28;9658;-75
2023/10/02 09:45:14;;;;;;;;;13.60;11.80;;;;;;;;5036286;28;8802;-69
2023/10/02 09:47:42;;;;;;;;;13.80;13.80;;;;;;;;5049224;28;8799;-73
2023/10/02 09:50:26;;;;;;;;;12.60;11.80;;;;;;;;5026160;28;8978;-74
2023/10/02 09:53:00;;;;;;;;;13.80;13.00;;;;;;;;5040122;28;8856;-77
2023/10/02 09:55:40;;;;;;;;;25.00;24.50;;;;;;;;5040497;28;8860;-76
2023/10/02 09:58:26;;;;;;;;;23.50;23.50;;;;;;;;5039666;28;8810;-76
2023/10/02 10:01:21;;;;;;;;;23.25;22.00;;;;;;;;5039487;28;8832;-76
2023/10/02 10:03:50;;;;;;;;;24.75;23.75;;;;;;;;5038459;28;8839;-79
2023/10/02 10:06:19;;;;;;;;;16.20;15.40;;;;;;;;5039796;28;8954;-81
2023/10/02 10:09:18;;;;;;;;;14.80;14.60;;;;;;;;5035051;28;8794;-80
2023/10/02 10:11:42;;;;;;;;;12.80;12.80;;;;;;;;5029766;28;8833;-76
2023/10/02 10:14:36;;;;;;;;;13.60;13.60;;;;;;;;5040472;28;8820;-73
2023/10/02 10:17:03;;;;;;;;;22.80;18.80;;;;;;;;5039528;28;9571;-72
2023/10/02 10:19:31;;;;;;;;;20.60;20.60;;;;;;;;5034858;28;8840;-74
2023/10/02 10:21:56;;;;;;;;;19.60;19.00;;;;;;;;5037031;28;8891;-75
2023/10/02 10:24:34;;;;;;;;;13.25;13.00;;;;;;;;5028430;28;8845;-75
2023/10/02 10:27:00;;;;;;;;;14.40;13.40;;;;;;;;5029716;28;8828;-74
2023/10/02 10:29:41;;;;;;;;;14.80;14.80;;;;;;;;5028048;28;8943;-75
2023/10/02 10:32:23;;;;;;;;;12.40;12.00;;;;;;;;5047474;28;8819;-73
2023/10/02 10:35:14;;;;;;;;;11.20;11.20;;;;;;;;5069586;28;9604;-75
2023/10/02 10:37:46;;;;;;;;;11.20;11.00;;;;;;;;5040366;28;8813;-74
2023/10/02 10:40:44;;;;;;;;;21.20;19.60;;;;;;;;5039276;28;8935;-72
2023/10/02 10:43:12;;;;;;;;;23.80;23.80;;;;;;;;5039754;28;8916;-73
2023/10/02 10:45:39;;;;;;;;;22.00;22.00;;;;;;;;5053119;28;8845;-73
2023/10/02 10:48:18;;;;;;;;;14.00;14.00;;;;;;;;5052932;28;8822;-72
2023/10/02 10:50:56;;;;;;;;;14.60;14.20;;;;;;;;5052791;28;8917;-78
2023/10/02 10:53:32;;;;;;;;;19.75;19.75;;;;;;;;5046604;28;8831;-78
2023/10/02 10:56:05;;;;;;;;;10.20;10.20;;;;;;;;5043819;28;8821;-76
2023/10/02 10:58:33;;;;;;;;;14.00;13.00;;;;;;;;5042266;28;8815;-77
2023/10/02 11:01:00;;;;;;;;;18.25;18.25;;;;;;;;5044274;28;8809;-77
2023/10/02 11:03:30;;;;;;;;;12.50;11.50;;;;;;;;5043841;28;8894;-77
2023/10/02 11:06:06;;;;;;;;;15.00;14.00;;;;;;;;5041163;28;8817;-77
2023/10/02 11:08:33;;;;;;;;;30.75;29.00;;;;;;;;5041517;28;8773;-76
2023/10/02 11:11:06;;;;;;;;;23.00;23.00;;;;;;;;5042666;28;8791;-76
2023/10/02 11:13:50;;;;;;;;;12.00;11.75;;;;;;;;5042908;28;8819;-76
2023/10/02 11:16:38;;;;;;;;;27.75;27.75;;;;;;;;5042943;28;8791;-75
2023/10/02 11:19:10;;;;;;;;;32.25;27.75;;;;;;;;5041834;28;8794;-76
2023/10/02 11:21:45;;;;;;;;;27.50;27.50;;;;;;;;5040564;28;8785;-76
2023/10/02 11:24:20;;;;;;;;;11.50;11.50;;;;;;;;5040571;28;8769;-75
2023/10/02 11:26:45;;;;;;;;;13.00;11.75;;;;;;;;5042042;28;8833;-75
2023/10/02 11:29:22;;;;;;;;;13.00;11.00;;;;;;;;5040650;28;8859;-76
2023/10/02 11:32:18;;;;;;;;;23.50;23.50;;;;;;;;5042903;28;8996;-75
2023/10/02 11:34:43;;;;;;;;;13.50;12.50;;;;;;;;5041501;28;8825;-76
2023/10/02 11:37:11;;;;;;;;;28.33;26.00;;;;;;;;5040982;28;8803;-77
2023/10/02 11:39:36;;;;;;;;;13.25;12.50;;;;;;;;5040019;28;8840;-76
2023/10/02 11:42:05;;;;;;;;;26.00;26.00;;;;;;;;5045768;28;8806;-73
2023/10/02 11:44:31;;;;;;;;;24.50;23.25;;;;;;;;5051378;28;8830;-67
2023/10/02 11:46:56;;;;;;;;;29.33;26.00;;;;;;;;5049871;28;8834;-75
2023/10/02 11:49:21;;;;;;;;;30.33;28.00;;;;;;;;5051402;28;8811;-73
2023/10/02 11:51:47;;;;;;;;;22.00;21.00;;;;;;;;5051597;28;9588;-76
2023/10/02 11:54:13;;;;;;;;;13.67;12.33;;;;;;;;5042175;28;8814;-77
2023/10/02 11:56:39;;;;;;;;;14.00;13.00;;;;;;;;5043350;28;8806;-77
2023/10/02 11:59:06;;;;;;;;;12.00;11.00;;;;;;;;5041155;28;8809;-76
2023/10/02 12:01:31;;;;;;;;;12.75;12.25;;;;;;;;5042138;28;8807;-76
2023/10/02 12:03:57;;;;;;;;;26.67;26.00;;;;;;;;5039365;28;9547;-75
2023/10/02 12:06:25;;;;;;;;;25.33;22.00;;;;;;;;5041350;28;8818;-75
2023/10/02 12:08:50;;;;;;;;;17.50;16.25;;;;;;;;5041761;28;8855;-76
2023/10/02 12:11:16;;;;;;;;;24.33;23.33;;;;;;;;5042411;28;8806;-75
2023/10/02 12:13:44;;;;;;;;;27.33;26.00;;;;;;;;5040013;28;8827;-76
2023/10/02 12:16:11;;;;;;;;;21.33;19.67;;;;;;;;5037726;28;8887;-76
2023/10/02 12:18:37;;;;;;;;;23.33;23.33;;;;;;;;5039912;28;9234;-75
2023/10/02 12:21:08;;;;;;;;;26.00;23.67;;;;;;;;5041423;28;9335;-76
2023/10/02 12:23:38;;;;;;;;;21.67;21.00;;;;;;;;5029927;28;8803;-74
2023/10/02 12:26:04;;;;;;;;;12.75;12.25;;;;;;;;5029555;28;9427;-80
2023/10/02 12:28:29;;;;;;;;;11.67;11.00;;;;;;;;5030818;28;8786;-77
2023/10/02 12:30:55;;;;;;;;;19.33;17.67;;;;;;;;5030517;28;8798;-73
2023/10/02 12:33:20;;;;;;;;;12.33;12.33;;;;;;;;5048296;28;8845;-69
2023/10/02 12:35:45;;;;;;;;;13.00;12.67;;;;;;;;5039079;28;8848;-71
2023/10/02 12:38:13;;;;;;;;;15.00;13.33;;;;;;;;5039563;28;8813;-72
2023/10/02 12:40:39;;;;;;;;;15.00;12.50;;;;;;;;5039487;28;9512;-71
2023/10/02 12:43:05;;;;;;;;;15.75;12.50;;;;;;;;5041106;28;8802;-72
2023/10/02 12:45:35;;;;;;;;;15.00;13.00;;;;;;;;5040263;28;8828;-72
2023/10/02 12:48:09;;;;;;;;;11.50;10.00;;;;;;;;5041294;28;8815;-79
2023/10/02 12:50:38;;;;;;;;;14.75;14.75;;;;;;;;5045002;28;8782;-71
2023/10/02 12:53:04;;;;;;;;;30.00;27.33;;;;;;;;5036197;28;8834;-70
2023/10/02 12:55:30;;;;;;;;;22.33;21.67;;;;;;;;5037604;28;9291;-72
2023/10/02 12:57:56;;;;;;;;;49.75;39.50;;;;;;;;5050204;28;8803;-70
2023/10/02 13:00:21;;;;;;;;;29.75;27.75;;;;;;;;5050282;28;10085;-72
2023/10/02 13:02:47;;;;;;;;;33.00;29.33;;;;;;;;5064609;28;8815;-77
2023/10/02 13:05:12;;;;;;;;;16.67;14.00;;;;;;;;5053624;28;8826;-75
2023/10/02 13:07:37;;;;;;;;;11.67;11.00;;;;;;;;5049813;28;8799;-74
2023/10/02 13:10:04;;;;;;;;;27.00;25.00;;;;;;;;5050412;28;8803;-80
2023/10/02 13:12:31;;;;;;;;;25.33;22.00;;;;;;;;5050239;28;8829;-73
2023/10/02 13:14:57;;;;;;;;;22.33;21.67;;;;;;;;5048847;28;9176;-78
2023/10/02 13:17:23;;;;;;;;;25.33;23.33;;;;;;;;5046424;28;9083;-75
2023/10/02 13:19:48;;;;;;;;;27.67;25.00;;;;;;;;5034382;28;9341;-75
2023/10/02 13:22:14;;;;;;;;;17.00;16.33;;;;;;;;5026921;28;8806;-75
2023/10/02 13:24:42;;;;;;;;;15.25;13.25;;;;;;;;5028049;28;8903;-76
2023/10/02 13:27:07;;;;;;;;;17.00;16.67;;;;;;;;5026143;28;9653;-75
2023/10/02 13:29:34;;;;;;;;;17.00;15.00;;;;;;;;5027891;28;9043;-76
2023/10/02 13:32:01;;;;;;;;;23.67;20.67;;;;;;;;5042893;28;8838;-75
2023/10/02 13:34:26;;;;;;;;;20.00;20.00;;;;;;;;5066437;28;9094;-75
2023/10/02 13:36:51;;;;;;;;;24.33;21.33;;;;;;;;5069673;28;9142;-75
2023/10/02 13:39:17;;;;;;;;;14.67;13.00;;;;;;;;5069709;28;8785;-75
2023/10/02 13:41:43;;;;;;;;;21.33;17.33;;;;;;;;5069422;28;9538;-75
2023/10/02 13:44:09;;;;;;;;;17.33;15.00;;;;;;;;5069746;28;9049;-75
2023/10/02 13:46:38;;;;;;;;;21.00;17.33;;;;;;;;5069400;28;8843;-75
2023/10/02 13:49:04;;;;;;;;;24.33;20.00;;;;;;;;5061133;28;9127;-75
2023/10/02 13:51:30;;;;;;;;;16.75;16.00;;;;;;;;5050171;28;9275;-75
2023/10/02 13:53:56;;;;;;;;;22.00;20.00;;;;;;;;5063126;22;8875;-78
2023/10/02 13:56:25;;;;;;;;;14.33;10.33;;;;;;;;5050252;28;8821;-79
2023/10/02 13:58:50;;;;;;;;;20.00;19.00;;;;;;;;5048837;28;9651;-78
2023/10/02 14:01:20;;;;;;;;;23.00;21.67;;;;;;;;5051064;28;9363;-78
2023/10/02 14:03:45;;;;;;;;;20.25;19.25;;;;;;;;5068975;28;8819;-79
2023/10/02 14:06:12;;;;;;;;;21.33;18.67;;;;;;;;5070041;28;8835;-79
2023/10/02 14:08:39;;;;;;;;;20.33;20.00;;;;;;;;5069989;28;8777;-83
2023/10/02 14:11:05;;;;;;;;;13.00;13.00;;;;;;;;5070365;28;8957;-77
2023/10/02 14:13:31;;;;;;;;;10.33;10.00;;;;;;;;5070219;28;8772;-78
2023/10/02 14:16:01;;;;;;;;;22.67;20.00;;;;;;;;5070320;28;8819;-77
2023/10/02 14:18:28;;;;;;;;;20.33;20.00;;;;;;;;5071426;28;9769;-80
2023/10/02 14:20:57;;;;;;;;;23.00;22.00;;;;;;;;5074460;28;9279;-78
2023/10/02 14:23:23;;;;;;;;;24.00;22.33;;;;;;;;5074171;28;9123;-77
2023/10/02 14:25:49;;;;;;;;;13.67;13.33;;;;;;;;5073999;28;9024;-73
2023/10/02 14:28:15;;;;;;;;;22.50;20.25;;;;;;;;5073838;28;8780;-71
2023/10/02 14:30:41;;;;;;;;;23.00;22.67;;;;;;;;5073314;28;9334;-70
2023/10/02 14:33:07;;;;;;;;;22.33;20.00;;;;;;;;5073481;28;9207;-69
2023/10/02 14:35:34;;;;;;;;;22.00;21.33;;;;;;;;5073263;28;8804;-71
2023/10/02 14:38:00;;;;;;;;;21.00;20.33;;;;;;;;5073502;28;9340;-73
2023/10/02 14:40:34;;;;;;;;;20.00;17.33;;;;;;;;5073505;28;9184;-71
2023/10/02 14:43:02;;;;;;;;;26.50;25.25;;;;;;;;5073620;28;10113;-73
2023/10/02 14:45:31;;;;;;;;;19.67;17.67;;;;;;;;5072949;28;9417;-73
2023/10/02 14:47:57;;;;;;;;;18.33;17.67;;;;;;;;5072899;28;9202;-72
2023/10/02 14:50:26;;;;;;;;;26.33;26.00;;;;;;;;5072629;28;9025;-73
2023/10/02 14:52:53;;;;;;;;;11.75;11.75;;;;;;;;5073346;28;9341;-71
2023/10/02 14:55:22;;;;;;;;;16.25;15.00;;;;;;;;5073488;28;8788;-72
2023/10/02 14:58:11;;;;;;;;;16.00;14.75;;;;;;;;5072021;28;8804;-73
2023/10/02 15:00:37;;;;;;;;;16.50;13.50;;;;;;;;5071866;28;8804;-71
2023/10/02 15:03:02;;;;;;;;;20.67;16.67;;;;;;;;5065740;28;8914;-71
2023/10/02 15:05:28;;;;;;;;;19.00;17.00;;;;;;;;5053115;28;8811;-72
2023/10/02 15:07:53;;;;;;;;;14.67;14.33;;;;;;;;5052393;28;9568;-72
2023/10/02 15:10:21;;;;;;;;;15.00;15.00;;;;;;;;5052074;28;8775;-77
2023/10/02 15:12:47;;;;;;;;;17.00;17.00;;;;;;;;5046176;28;8797;-73
2023/10/02 15:15:14;;;;;;;;;18.25;15.50;;;;;;;;5041930;28;8876;-77
2023/10/02 15:17:41;;;;;;;;;17.00;16.00;;;;;;;;5045360;28;9556;-73
2023/10/02 15:20:10;;;;;;;;;16.00;16.00;;;;;;;;5052816;28;8791;-75
2023/10/02 15:22:35;;;;;;;;;15.75;15.75;;;;;;;;5046824;28;8786;-73